Time;durP1;ratioP1;P1;durP2;ratioP2;P2;SDS_P1;SDS_P2;PMS_P1;PMS_P2;Temp;Humidity;BMP_temperature;BMP_pressure;BME280_temperature;BME280_humidity;BME280_pressure;Samples;Min_cycle;Max_cycle;Signal;HPM_P1;HPM_P2
2021/01/05 00:02:03;;;;;;;3.42;1.00;;;;;;;3.93;73.01;100779.34;4853347;29;20042;-76
2021/01/05 00:04:33;;;;;;;2.10;0.60;;;;;;;3.97;73.22;100783.28;4873007;29;20078;-75
2021/01/05 00:07:07;;;;;;;1.40;0.93;;;;;;;4.08;73.35;100781.78;4853183;29;20034;-76
2021/01/05 00:09:38;;;;;;;3.90;0.77;;;;;;;4.14;72.11;100786.34;4867922;29;20044;-75
2021/01/05 00:12:10;;;;;;;1.42;0.60;;;;;;;4.13;72.19;100784.69;4857273;29;20069;-74
2021/01/05 00:14:44;;;;;;;4.10;0.40;;;;;;;4.15;72.05;100777.19;4854128;29;20045;-75
2021/01/05 00:17:32;;;;;;;2.03;0.45;;;;;;;4.15;71.64;100781.78;4855894;29;20029;-75
2021/01/05 00:20:02;;;;;;;0.40;0.30;;;;;;;4.16;72.47;100778.00;4856046;29;20060;-75
2021/01/05 00:22:30;;;;;;;2.28;0.50;;;;;;;4.17;72.21;100777.78;4859026;29;20029;-78
2021/01/05 00:25:10;;;;;;;2.92;1.10;;;;;;;4.23;72.03;100778.81;4855370;29;20038;-77
2021/01/05 00:27:41;;;;;;;1.52;0.30;;;;;;;4.17;71.30;100776.97;4860770;29;20124;-76
2021/01/05 00:30:26;;;;;;;2.05;0.60;;;;;;;4.22;72.01;100777.16;4854341;29;20078;-75
2021/01/05 00:33:10;;;;;;;0.60;0.35;;;;;;;4.20;71.52;100784.66;4858457;29;20037;-76
2021/01/05 00:35:42;;;;;;;2.45;0.47;;;;;;;4.19;71.51;100782.97;4848237;29;20066;-77
2021/01/05 00:38:14;;;;;;;0.30;0.30;;;;;;;4.15;71.65;100779.06;4873646;29;20036;-77
2021/01/05 00:40:43;;;;;;;5.20;0.75;;;;;;;4.16;71.76;100788.81;4857067;29;20025;-77
2021/01/05 00:43:10;;;;;;;1.27;0.77;;;;;;;4.16;71.87;100778.00;4858518;29;20033;-75
2021/01/05 00:45:42;;;;;;;0.40;0.40;;;;;;;4.20;71.24;100779.22;4852538;29;20081;-78
2021/01/05 00:48:10;;;;;;;0.30;0.20;;;;;;;4.22;71.19;100779.03;4855633;29;20030;-77
2021/01/05 00:50:38;;;;;;;0.65;0.40;;;;;;;4.24;71.40;100780.47;4860918;29;20041;-78
2021/01/05 00:53:04;;;;;;;0.43;0.38;;;;;;;4.30;71.64;100790.44;4862531;29;20076;-78
2021/01/05 00:55:32;;;;;;;2.30;0.40;;;;;;;4.29;71.05;100786.09;4860738;29;20540;-77
2021/01/05 00:58:00;;;;;;;1.35;1.00;;;;;;;4.30;71.20;100784.19;4833913;29;20042;-75
2021/01/05 01:00:31;;;;;;;5.30;0.40;;;;;;;4.33;71.00;100787.28;4876540;29;20127;-75
2021/01/05 01:02:56;;;;;;;2.17;0.55;;;;;;;4.29;70.80;100799.63;4855792;29;20021;-79
2021/01/05 01:05:22;;;;;;;6.40;0.50;;;;;;;4.27;71.21;100801.69;4861992;29;20036;-80
2021/01/05 01:07:50;;;;;;;2.03;0.40;;;;;;;4.26;70.95;100794.63;4848902;29;20068;-79
2021/01/05 01:10:32;;;;;;;0.82;0.60;;;;;;;4.22;71.07;100782.56;4861251;29;20026;-77
2021/01/05 01:13:20;;;;;;;2.30;0.38;;;;;;;4.26;70.70;100794.63;4857664;29;20033;-81
2021/01/05 01:15:48;;;;;;;1.27;0.50;;;;;;;4.23;71.03;100788.81;4855756;29;20560;-80
2021/01/05 01:18:19;;;;;;;0.47;0.47;;;;;;;4.22;71.07;100782.56;4857253;29;20044;-81
2021/01/05 01:20:44;;;;;;;2.60;0.63;;;;;;;4.22;70.83;100782.56;4859707;29;20454;-80
2021/01/05 01:23:13;;;;;;;3.97;0.70;;;;;;;4.21;70.57;100780.91;4838835;29;20049;-79
2021/01/05 01:25:46;;;;;;;6.55;0.40;;;;;;;4.18;70.66;100775.94;4847904;29;20034;-80
2021/01/05 01:28:17;;;;;;;5.88;0.45;;;;;;;4.11;70.96;100767.00;4869461;29;20552;-81
2021/01/05 01:30:47;;;;;;;3.90;0.90;;;;;;;4.08;70.46;100770.13;4850893;29;20104;-81
2021/01/05 01:33:12;;;;;;;0.20;0.20;;;;;;;4.05;71.28;100770.56;4853605;29;20078;-82
2021/01/05 01:35:58;;;;;;;1.95;0.70;;;;;;;4.02;70.72;100769.94;4859724;29;20029;-81
2021/01/05 01:38:44;;;;;;;2.17;0.30;;;;;;;3.99;70.57;100767.66;4852017;29;20102;-81
2021/01/05 01:41:09;;;;;;;4.97;0.65;;;;;;;3.94;71.35;100770.19;4849429;29;21054;-81
2021/01/05 01:43:40;;;;;;;5.47;0.50;;;;;;;3.93;71.26;100773.09;4853370;29;20064;-81
2021/01/05 01:46:09;;;;;;;1.75;0.50;;;;;;;3.92;71.54;100774.97;4849505;29;20113;-80
2021/01/05 01:48:57;;;;;;;3.13;0.85;;;;;;;3.90;70.79;100776.22;4848373;29;20124;-81
2021/01/05 01:51:32;;;;;;;3.53;0.98;;;;;;;3.89;71.15;100783.50;4854806;29;20492;-80
2021/01/05 01:54:48;;;;;;;2.00;0.50;;;;;;;3.89;71.24;100782.69;4869310;29;20495;-81
2021/01/05 01:57:52;;;;;;;2.07;0.30;;;;;;;3.87;71.51;100782.91;4847031;29;20041;-80
2021/01/05 02:00:23;;;;;;;2.85;0.40;;;;;;;3.83;70.97;100781.66;4848689;29;20037;-80
2021/01/05 02:03:12;;;;;;;2.15;0.80;;;;;;;3.88;70.60;100787.25;4860294;29;20033;-81
2021/01/05 02:06:17;;;;;;;2.65;0.47;;;;;;;3.87;71.19;100791.03;4854889;29;20068;-81
2021/01/05 02:08:54;;;;;;;0.95;0.45;;;;;;;3.83;70.63;100790.59;4855294;29;20025;-80
2021/01/05 02:12:24;;;;;;;1.30;0.35;;;;;;;3.86;71.06;100792.06;4853354;29;20369;-80
2021/01/05 02:14:58;;;;;;;0.15;0.10;;;;;;;3.86;71.40;100791.25;4837402;29;20081;-79
2021/01/05 02:17:55;;;;;;;3.53;0.20;;;;;;;3.85;71.13;100798.50;4872559;29;20033;-80
2021/01/05 02:20:30;;;;;;;6.75;1.02;;;;;;;3.82;71.09;100782.69;4852281;29;20025;-81
2021/01/05 02:23:13;;;;;;;3.92;0.20;;;;;;;3.78;70.37;100792.28;4854345;29;20029;-78
2021/01/05 02:26:08;;;;;;;6.07;0.55;;;;;;;3.77;70.89;100798.75;4860915;29;20038;-77
2021/01/05 02:29:00;;;;;;;0.80;0.32;;;;;;;3.74;70.90;100786.47;4871803;29;20030;-79
2021/01/05 02:31:59;;;;;;;;;;;;;;;;;;;;;
2021/01/05 02:35:06;;;;;;;1.17;0.30;;;;;;;3.78;71.27;100786.88;4858215;29;20025;-82
2021/01/05 02:37:41;;;;;;;;;;;;;;;3.75;70.80;100788.16;4859496;29;20066;-81
2021/01/05 02:40:36;;;;;;;2.63;0.63;;;;;;;3.74;70.39;100788.34;4853339;29;19916;-79
2021/01/05 02:43:20;;;;;;;4.03;0.30;;;;;;;3.74;71.46;100785.63;4858630;29;20093;-80
2021/01/05 02:46:12;;;;;;;1.73;0.85;;;;;;;3.79;70.60;100789.38;4849839;29;20031;-78
2021/01/05 02:49:09;;;;;;;2.53;0.40;;;;;;;3.82;71.00;100782.69;4871225;29;20045;-79
2021/01/05 02:51:44;;;;;;;0.82;0.43;;;;;;;3.79;71.17;100783.94;4855110;29;20037;-81
2021/01/05 02:54:30;;;;;;;1.23;0.40;;;;;;;3.81;71.06;100775.63;4857045;29;20030;-80
2021/01/05 02:57:32;;;;;;;3.50;0.65;;;;;;;3.79;70.39;100789.38;4845375;29;20022;-80
2021/01/05 03:00:33;;;;;;;0.82;0.40;;;;;;;3.78;71.18;100787.72;4844816;29;20026;-81
2021/01/05 03:03:19;;;;;;;0.75;0.20;;;;;;;3.82;70.65;100788.13;4855606;29;20112;-81
2021/01/05 03:06:20;;;;;;;1.63;0.40;;;;;;;3.84;71.05;100781.47;4875425;29;20538;-81
2021/01/05 03:09:38;;;;;;;4.40;0.50;;;;;;;3.83;70.86;100785.19;4854705;29;20428;-81
2021/01/05 03:12:16;;;;;;;1.25;0.43;;;;;;;3.84;71.32;100777.91;4872368;29;20468;-79
2021/01/05 03:14:53;;;;;;;2.45;0.40;;;;;;;3.84;70.53;100775.19;4855472;29;20050;-79
2021/01/05 03:17:30;;;;;;;0.57;0.30;;;;;;;3.87;70.52;100774.78;4869733;29;20361;-80
2021/01/05 03:20:04;;;;;;;1.67;0.47;;;;;;;3.90;70.91;100787.03;4856257;29;20022;-80
2021/01/05 03:22:36;;;;;;;1.55;0.50;;;;;;;3.90;70.56;100784.34;4854910;29;20029;-78
2021/01/05 03:25:05;;;;;;;0.43;0.22;;;;;;;3.94;71.06;100797.25;4863287;29;20021;-80
2021/01/05 03:27:39;;;;;;;4.40;0.95;;;;;;;3.93;70.40;100784.75;4877736;29;20025;-79
2021/01/05 03:30:22;;;;;;;0.85;0.30;;;;;;;3.97;70.65;100786.00;4854652;29;20033;-80
2021/01/05 03:32:48;;;;;;;2.90;0.40;;;;;;;3.98;71.07;100782.22;4860747;29;20060;-79
2021/01/05 03:35:13;;;;;;;0.50;0.20;;;;;;;4.00;70.80;100774.75;4845259;29;20034;-81
2021/01/05 03:37:48;;;;;;;0.38;0.20;;;;;;;4.02;70.51;100790.75;4847885;29;20132;-80
2021/01/05 03:40:20;;;;;;;0.47;0.20;;;;;;;4.08;69.96;100770.97;4850601;29;20449;-81
2021/01/05 03:42:46;;;;;;;0.98;0.40;;;;;;;4.06;70.00;100766.78;4852005;29;20044;-81
2021/01/05 03:45:29;;;;;;;1.27;0.30;;;;;;;4.10;70.23;100778.88;4863927;29;20025;-80
2021/01/05 03:47:54;;;;;;;2.60;0.20;;;;;;;4.08;69.94;100784.50;4857425;29;20096;-80
2021/01/05 03:50:27;;;;;;;0.73;0.20;;;;;;;4.06;70.09;100775.78;4875954;29;20458;-80
2021/01/05 03:52:54;;;;;;;1.10;0.30;;;;;;;4.06;70.03;100783.03;4860981;29;20033;-79
2021/01/05 03:55:29;;;;;;;3.20;0.30;;;;;;;4.07;70.07;100784.72;4844144;29;20038;-80
2021/01/05 03:57:54;;;;;;;3.22;0.40;;;;;;;4.10;70.01;100782.38;4847368;29;20341;-80
2021/01/05 04:00:37;;;;;;;1.35;0.40;;;;;;;4.13;70.06;100781.13;4859834;29;20552;-80
2021/01/05 04:03:08;;;;;;;6.32;0.45;;;;;;;4.14;70.17;100780.09;4856176;29;20093;-79
2021/01/05 04:05:33;;;;;;;1.30;0.30;;;;;;;4.13;70.25;100778.44;4869861;29;20026;-79
2021/01/05 04:07:59;;;;;;;1.73;0.40;;;;;;;4.13;70.37;100775.72;4883427;29;20107;-79
2021/01/05 04:10:24;;;;;;;2.35;0.57;;;;;;;4.09;69.83;100771.78;4855439;29;20467;-78
2021/01/05 04:12:56;;;;;;;2.25;0.20;;;;;;;4.06;69.31;100774.91;4856525;29;20085;-78
2021/01/05 04:15:30;;;;;;;1.67;0.30;;;;;;;4.01;70.19;100765.56;4859577;29;20509;-79
2021/01/05 04:17:58;;;;;;;1.45;0.35;;;;;;;3.99;70.25;100767.66;4859767;29;20029;-80
2021/01/05 04:20:29;;;;;;;3.05;0.32;;;;;;;3.97;70.10;100780.59;4857619;29;20461;-80
2021/01/05 04:23:18;;;;;;;1.00;0.20;;;;;;;3.91;69.44;100761.66;4873946;29;20029;-81
2021/01/05 04:25:49;;;;;;;3.10;0.77;;;;;;;3.91;70.01;100762.47;4849582;29;20033;-79
2021/01/05 04:28:23;;;;;;;1.33;0.20;;;;;;;3.89;70.74;100761.88;4851941;29;22106;-78
2021/01/05 04:31:09;;;;;;;0.50;0.20;;;;;;;3.83;69.97;100757.31;4852105;29;20396;-77
2021/01/05 04:33:40;;;;;;;2.88;0.35;;;;;;;3.70;69.84;100755.47;4837140;29;20042;-77
2021/01/05 04:36:11;;;;;;;1.15;0.28;;;;;;;3.57;71.09;100759.03;4852017;29;20037;-78
2021/01/05 04:38:39;;;;;;;0.40;0.22;;;;;;;3.43;70.58;100739.31;4867653;29;20946;-78
2021/01/05 04:41:27;;;;;;;7.25;0.50;;;;;;;3.31;71.33;100747.25;4853478;29;20403;-77
2021/01/05 04:43:59;;;;;;;2.05;0.60;;;;;;;3.19;71.29;100739.97;4878478;29;20389;-77
2021/01/05 04:46:35;;;;;;;1.05;0.40;;;;;;;3.04;71.47;100732.94;4868992;29;20029;-77
2021/01/05 04:49:32;;;;;;;1.08;0.20;;;;;;;2.96;72.50;100725.03;4871469;29;20029;-77
2021/01/05 04:52:10;;;;;;;1.13;0.50;;;;;;;2.86;72.85;100732.72;4851800;29;20089;-77
2021/01/05 04:54:48;;;;;;;3.60;0.40;;;;;;;2.75;72.45;100723.38;4859208;29;20412;-79
2021/01/05 04:57:23;;;;;;;1.95;0.22;;;;;;;2.74;73.45;100727.09;4859663;29;20495;-78
2021/01/05 04:59:53;;;;;;;0.65;0.60;;;;;;;2.70;73.09;100721.28;4857442;29;20077;-78
2021/01/05 05:02:40;;;;;;;2.05;0.40;;;;;;;2.65;73.92;100722.94;4858099;29;20492;-78
2021/01/05 05:05:26;;;;;;;1.92;0.47;;;;;;;2.58;72.50;100722.91;4860437;29;20477;-78
2021/01/05 05:08:25;;;;;;;4.72;0.50;;;;;;;2.47;73.88;100726.22;4851231;29;20037;-78
2021/01/05 05:11:15;;;;;;;1.17;0.28;;;;;;;2.37;73.47;100721.25;4872088;29;20033;-77
2021/01/05 05:14:00;;;;;;;2.45;0.50;;;;;;;2.33;74.01;100720.81;4868595;29;20033;-77
2021/01/05 05:16:28;;;;;;;0.57;0.40;;;;;;;2.31;75.19;100727.44;4857355;29;20515;-77
2021/01/05 05:19:24;;;;;;;1.00;0.35;;;;;;;2.26;74.30;100728.91;4858005;29;20062;-77
2021/01/05 05:22:21;;;;;;;;;;;;;;;;;;;;;
2021/01/05 05:24:49;;;;;;;0.95;0.40;;;;;;;2.18;74.51;100733.66;4858189;29;20502;-77
2021/01/05 05:27:34;;;;;;;2.40;0.57;;;;;;;2.17;74.80;100732.81;4873692;29;20485;-77
2021/01/05 05:30:11;;;;;;;0.52;0.35;;;;;;;2.17;75.57;100727.41;4854534;29;20025;-77
2021/01/05 05:32:58;;;;;;;1.75;0.50;;;;;;;2.19;74.90;100727.19;4859279;29;20052;-77
2021/01/05 05:35:47;;;;;;;2.60;0.32;;;;;;;2.17;75.02;100735.50;4832001;29;20113;-78
2021/01/05 05:38:27;;;;;;;8.70;1.42;;;;;;;2.13;75.41;100726.13;4851493;29;20030;-78
2021/01/05 05:41:13;;;;;;;1.23;0.50;;;;;;;2.13;75.52;100730.72;4858381;29;20481;-78
2021/01/05 05:44:08;;;;;;;1.95;0.25;;;;;;;2.14;75.81;100733.22;4866315;29;20029;-78
2021/01/05 05:47:16;;;;;;;0.35;0.15;;;;;;;2.14;76.34;100733.22;4859673;29;20040;-79
2021/01/05 05:49:59;;;;;;;3.95;0.30;;;;;;;2.12;76.12;100729.91;4820175;29;20068;-79
2021/01/05 05:52:40;;;;;;;0.68;0.45;;;;;;;2.10;75.43;100726.53;4855972;29;20437;-77
2021/01/05 05:55:42;;;;;;;0.88;0.50;;;;;;;2.15;76.34;100739.47;4853054;29;20117;-78
2021/01/05 05:58:35;;;;;;;2.63;0.20;;;;;;;2.13;76.16;100731.53;4853916;29;20458;-80
2021/01/05 06:01:07;;;;;;;0.75;0.45;;;;;;;2.15;75.79;100737.56;4855340;29;20088;-78
2021/01/05 06:03:32;;;;;;;0.45;0.20;;;;;;;2.14;75.67;100738.59;4859589;29;20025;-79
2021/01/05 06:06:00;;;;;;;1.63;0.20;;;;;;;2.08;75.82;100736.72;4843357;29;20064;-81
2021/01/05 06:08:25;;;;;;;0.98;0.50;;;;;;;2.11;75.89;100744.41;4851101;29;20033;-81
2021/01/05 06:10:52;;;;;;;2.30;0.35;;;;;;;2.07;76.13;100748.53;4855599;29;20093;-79
2021/01/05 06:13:17;;;;;;;0.20;0.15;;;;;;;2.09;76.37;100741.09;4859733;29;20074;-80
2021/01/05 06:15:43;;;;;;;3.60;0.50;;;;;;;2.06;76.72;100738.81;4851413;29;20096;-79
2021/01/05 06:18:16;;;;;;;1.30;0.40;;;;;;;2.07;76.08;100749.38;4865095;29;20033;-79
2021/01/05 06:20:42;;;;;;;0.43;0.13;;;;;;;2.02;76.92;100742.94;4871756;29;20120;-80
2021/01/05 06:23:08;;;;;;;5.28;0.20;;;;;;;1.99;76.19;100737.94;4859447;29;20504;-80
2021/01/05 06:25:34;;;;;;;0.20;0.20;;;;;;;1.95;77.01;100739.38;4859868;29;20033;-78
2021/01/05 06:28:00;;;;;;;5.53;0.43;;;;;;;1.92;75.79;100746.81;4869017;29;20033;-78
2021/01/05 06:30:26;;;;;;;9.63;0.63;;;;;;;1.90;76.93;100748.91;4868431;29;20081;-82
2021/01/05 06:32:52;;;;;;;2.25;0.65;;;;;;;1.86;76.19;100741.41;4859303;29;21105;-82
2021/01/05 06:35:20;;;;;;;0.43;0.40;;;;;;;1.84;76.70;100738.91;4854655;29;20025;-81
2021/01/05 06:37:49;;;;;;;2.10;0.90;;;;;;;1.84;77.23;100743.47;4852377;29;20044;-78
2021/01/05 06:40:17;;;;;;;4.30;0.40;;;;;;;1.82;77.57;100745.53;4859672;29;20017;-77
2021/01/05 06:42:43;;;;;;;7.82;0.50;;;;;;;1.82;77.00;100746.34;4856823;29;20037;-77
2021/01/05 06:45:10;;;;;;;0.88;0.35;;;;;;;1.81;76.78;100743.88;4842046;29;20120;-78
2021/01/05 06:47:35;;;;;;;1.00;0.30;;;;;;;1.81;76.94;100739.31;4839546;29;20033;-80
2021/01/05 06:50:01;;;;;;;3.92;0.30;;;;;;;1.80;77.29;100739.53;4842363;29;20036;-80
2021/01/05 06:52:26;;;;;;;0.38;0.25;;;;;;;1.80;76.82;100737.66;4837799;29;20021;-78
2021/01/05 06:54:52;;;;;;;3.20;0.25;;;;;;;1.77;77.16;100738.06;4857452;29;20093;-78
2021/01/05 06:57:18;;;;;;;1.38;0.60;;;;;;;1.75;76.99;100750.88;4861725;29;20093;-81
2021/01/05 06:59:43;;;;;;;2.83;0.30;;;;;;;1.70;77.90;100746.09;4872630;29;20017;-80
2021/01/05 07:02:09;;;;;;;0.47;0.15;;;;;;;1.71;78.08;100749.66;4876701;29;20036;-79
2021/01/05 07:04:35;;;;;;;0.43;0.30;;;;;;;1.69;78.20;100765.16;4869434;29;20042;-79
2021/01/05 07:07:02;;;;;;;1.70;0.22;;;;;;;1.68;77.03;100767.03;4875489;29;20056;-79
2021/01/05 07:09:33;;;;;;;2.65;0.43;;;;;;;1.66;77.65;100768.28;4867819;29;20070;-78
2021/01/05 07:11:58;;;;;;;3.92;0.57;;;;;;;1.71;78.01;100765.81;4864954;29;20037;-79
2021/01/05 07:14:25;;;;;;;1.45;0.20;;;;;;;1.80;77.98;100770.00;4851054;29;20037;-79
2021/01/05 07:16:51;;;;;;;5.50;0.50;;;;;;;1.87;77.23;100772.72;4857065;29;20057;-79
2021/01/05 07:19:17;;;;;;;4.65;0.52;;;;;;;1.95;77.74;100760.94;4855260;29;20026;-79
2021/01/05 07:21:43;;;;;;;0.63;0.32;;;;;;;2.02;77.38;100767.22;4851137;29;20025;-79
2021/01/05 07:24:09;;;;;;;2.25;0.40;;;;;;;2.06;77.72;100773.88;4854566;29;20036;-80
2021/01/05 07:26:49;;;;;;;5.00;0.30;;;;;;;2.10;76.89;100775.13;4847010;29;20236;-80
2021/01/05 07:29:17;;;;;;;0.65;0.30;;;;;;;2.14;77.27;100776.38;4854581;29;20158;-79
2021/01/05 07:31:43;;;;;;;2.28;0.60;;;;;;;2.13;76.58;100774.69;4854473;29;20504;-78
2021/01/05 07:34:10;;;;;;;4.13;0.90;;;;;;;2.02;76.90;100772.59;4870476;29;20177;-76
2021/01/05 07:36:42;;;;;;;1.10;0.13;;;;;;;1.99;76.79;100786.50;4866887;29;20026;-76
2021/01/05 07:39:23;;;;;;;9.50;0.30;;;;;;;1.87;76.14;100784.38;4868043;29;20029;-76
2021/01/05 07:41:50;;;;;;;0.45;0.40;;;;;;;1.92;77.48;100791.84;4841077;29;20044;-77
2021/01/05 07:44:16;;;;;;;5.88;0.80;;;;;;;1.91;76.32;100799.13;4855775;29;20040;-77
2021/01/05 07:46:42;;;;;;;2.17;0.85;;;;;;;1.92;76.64;100794.53;4847881;29;20045;-78
2021/01/05 07:49:08;;;;;;;0.57;0.40;;;;;;;1.92;76.80;100797.25;4863544;29;20138;-78
2021/01/05 07:51:34;;;;;;;2.47;0.28;;;;;;;2.02;77.01;100802.28;4852734;29;20053;-76
2021/01/05 07:53:59;;;;;;;4.25;0.93;;;;;;;2.00;76.56;100796.25;4852453;29;20105;-76
2021/01/05 07:56:24;;;;;;;4.25;0.80;;;;;;;1.94;76.61;100797.03;4855115;29;20404;-75
2021/01/05 07:58:50;;;;;;;2.72;0.70;;;;;;;1.93;75.96;100807.00;4875227;29;20064;-76
2021/01/05 08:01:15;;;;;;;1.67;0.82;;;;;;;1.88;77.23;100804.06;4858459;29;20113;-76
2021/01/05 08:03:43;;;;;;;2.35;0.88;;;;;;;1.80;76.48;100799.69;4858363;29;20136;-76
2021/01/05 08:06:10;;;;;;;10.90;1.02;;;;;;;1.81;76.50;100809.44;4851469;29;20033;-77
2021/01/05 08:08:35;;;;;;;1.15;0.63;;;;;;;1.77;76.88;100807.31;4852414;29;20500;-77
2021/01/05 08:11:01;;;;;;;5.57;0.60;;;;;;;1.69;76.56;100800.22;4853943;29;20112;-78
2021/01/05 08:13:26;;;;;;;3.17;0.40;;;;;;;1.69;77.10;100803.75;4844458;29;20520;-74
2021/01/05 08:15:52;;;;;;;5.68;0.60;;;;;;;1.62;76.67;100804.75;4867791;29;20053;-75
2021/01/05 08:18:17;;;;;;;0.90;0.38;;;;;;;1.56;76.93;100804.50;4859489;29;20076;-73
2021/01/05 08:20:42;;;;;;;0.68;0.40;;;;;;;1.55;77.53;100816.31;4872671;29;20021;-78
2021/01/05 08:23:08;;;;;;;10.80;0.70;;;;;;;1.54;77.23;100819.22;4855703;29;20442;-74
2021/01/05 08:25:34;;;;;;;5.32;0.88;;;;;;;1.51;78.00;100823.13;4858022;29;20082;-75
2021/01/05 08:28:00;;;;;;;1.70;0.70;;;;;;;1.47;78.25;100824.53;4837199;29;20042;-74
2021/01/05 08:30:28;;;;;;;5.80;0.82;;;;;;;1.48;77.86;100826.22;4870410;29;20030;-75
2021/01/05 08:32:58;;;;;;;1.10;0.40;;;;;;;1.45;76.95;100840.09;4879157;29;20066;-75
2021/01/05 08:35:23;;;;;;;4.07;0.68;;;;;;;1.43;77.42;100833.22;4876770;29;20105;-75
2021/01/05 08:37:50;;;;;;;3.83;0.47;;;;;;;1.44;78.15;100841.09;4888197;29;20033;-74
2021/01/05 08:40:20;;;;;;;0.60;0.60;;;;;;;1.41;77.12;100829.91;4882672;29;20037;-75
2021/01/05 08:42:46;;;;;;;5.72;0.35;;;;;;;1.38;77.26;100833.81;4865348;29;20034;-74
2021/01/05 08:45:12;;;;;;;0.73;0.15;;;;;;;1.41;77.74;100841.50;4839207;29;20101;-75
2021/01/05 08:47:38;;;;;;;0.50;0.30;;;;;;;1.39;77.06;100843.56;4861160;29;20056;-75
2021/01/05 08:50:06;;;;;;;0.50;0.30;;;;;;;1.41;78.22;100838.81;4852714;29;20042;-74
2021/01/05 08:52:32;;;;;;;0.85;0.35;;;;;;;1.42;77.35;100847.72;4856509;29;20401;-75
2021/01/05 08:54:57;;;;;;;1.77;0.43;;;;;;;1.42;77.00;100842.31;4851540;29;20047;-75
2021/01/05 08:57:22;;;;;;;1.25;0.45;;;;;;;1.44;77.84;100843.81;4847885;29;20037;-74
2021/01/05 08:59:49;;;;;;;1.95;0.40;;;;;;;1.46;77.16;100839.06;4859930;29;20037;-74
2021/01/05 09:02:21;;;;;;;1.48;0.20;;;;;;;1.43;77.16;100827.81;4842269;29;20048;-74
2021/01/05 09:04:49;;;;;;;1.30;0.40;;;;;;;1.44;77.35;100830.31;4856003;29;20041;-75
2021/01/05 09:07:20;;;;;;;4.03;0.45;;;;;;;1.44;76.74;100830.31;4852350;29;20119;-73
2021/01/05 09:09:53;;;;;;;2.85;0.38;;;;;;;1.48;76.97;100837.00;4854643;29;20445;-75
2021/01/05 09:12:21;;;;;;;1.42;0.30;;;;;;;1.39;76.43;100822.84;4854537;29;20029;-74
2021/01/05 09:14:51;;;;;;;1.40;0.20;;;;;;;1.41;77.10;100830.72;4847990;29;20080;-75
2021/01/05 09:17:16;;;;;;;0.50;0.20;;;;;;;1.42;76.83;100837.78;4851156;29;20184;-75
2021/01/05 09:19:42;;;;;;;0.15;0.15;;;;;;;1.44;76.18;100840.28;4856415;29;20025;-76
2021/01/05 09:22:07;;;;;;;1.17;0.28;;;;;;;1.46;76.77;100844.47;4850666;29;20072;-77
2021/01/05 09:24:38;;;;;;;0.22;0.22;;;;;;;1.48;76.76;100847.78;4823712;29;20141;-76
2021/01/05 09:27:03;;;;;;;0.75;0.35;;;;;;;1.51;76.63;100833.91;4846875;29;20096;-74
2021/01/05 09:29:29;;;;;;;2.47;0.50;;;;;;;1.69;77.02;100849.56;4847877;29;20048;-75
2021/01/05 09:31:56;;;;;;;0.70;0.55;;;;;;;1.81;76.03;100836.41;4857921;29;20412;-75
2021/01/05 09:34:24;;;;;;;1.80;0.40;;;;;;;2.05;76.56;100839.66;4843096;29;20060;-75
2021/01/05 09:36:51;;;;;;;0.32;0.32;;;;;;;2.28;75.91;100842.03;4858381;29;20060;-74
2021/01/05 09:39:19;;;;;;;0.45;0.40;;;;;;;2.47;75.44;100848.56;4855417;29;20060;-75
2021/01/05 09:41:51;;;;;;;3.53;0.65;;;;;;;2.61;74.94;100842.16;4857897;29;20033;-75
2021/01/05 09:44:17;;;;;;;2.47;0.60;;;;;;;2.72;74.75;100842.63;4854594;29;20119;-75
2021/01/05 09:46:51;;;;;;;1.80;0.60;;;;;;;2.82;73.64;100843.06;4847184;29;20132;-76
2021/01/05 09:49:17;;;;;;;4.97;0.57;;;;;;;2.94;73.86;100845.97;4847796;29;20659;-74
2021/01/05 09:51:42;;;;;;;0.65;0.50;;;;;;;3.22;73.38;100834.97;4872512;29;20040;-75
2021/01/05 09:54:08;;;;;;;1.92;0.55;;;;;;;3.88;72.73;100852.19;4850605;29;20033;-75
2021/01/05 09:56:34;;;;;;;2.40;0.50;;;;;;;4.34;71.11;100840.41;4860488;29;20041;-75
2021/01/05 09:59:02;;;;;;;0.82;0.40;;;;;;;4.62;69.71;100844.66;4849233;29;20041;-75
2021/01/05 10:01:30;;;;;;;3.08;0.30;;;;;;;4.71;69.59;100837.09;4848612;29;20074;-74
2021/01/05 10:03:55;;;;;;;3.45;0.73;;;;;;;4.70;67.92;100844.41;4856163;29;20127;-74
2021/01/05 10:06:27;;;;;;;6.38;0.73;;;;;;;4.82;68.39;100851.84;4872067;29;20112;-75
2021/01/05 10:08:52;;;;;;;4.15;1.00;;;;;;;5.05;67.84;100840.44;4854380;29;20033;-73
2021/01/05 10:11:18;;;;;;;1.42;0.50;;;;;;;5.49;67.20;100840.50;4840462;29;20815;-74
2021/01/05 10:13:43;;;;;;;6.78;0.63;;;;;;;5.73;65.74;100846.97;4851368;29;20563;-73
2021/01/05 10:16:12;;;;;;;0.68;0.40;;;;;;;5.76;65.72;100850.06;4853841;29;20045;-75
2021/01/05 10:18:37;;;;;;;6.43;0.65;;;;;;;5.77;64.98;100854.44;4864886;29;20100;-78
2021/01/05 10:21:02;;;;;;;0.85;0.50;;;;;;;5.77;64.67;100845.50;4871414;29;20026;-75
2021/01/05 10:23:31;;;;;;;1.02;0.40;;;;;;;5.80;64.28;100844.19;4855291;29;20105;-73
2021/01/05 10:26:00;;;;;;;9.07;1.13;;;;;;;5.76;64.59;100850.06;4848935;29;20120;-78
2021/01/05 10:28:25;;;;;;;0.75;0.20;;;;;;;5.76;64.60;100852.78;4860340;29;20082;-77
2021/01/05 10:31:02;;;;;;;3.00;0.70;;;;;;;5.85;63.98;100830.78;4870381;29;20034;-78
2021/01/05 10:33:29;;;;;;;0.63;0.43;;;;;;;6.05;63.95;100834.16;4858494;29;20033;-77
2021/01/05 10:35:54;;;;;;;1.75;0.50;;;;;;;6.47;63.87;100853.28;4861738;29;20052;-73
2021/01/05 10:38:20;;;;;;;0.35;0.30;;;;;;;6.66;63.31;100847.84;4853590;29;20473;-74
2021/01/05 10:40:45;;;;;;;0.95;0.50;;;;;;;6.70;62.38;100830.03;4841292;29;20112;-75
2021/01/05 10:43:11;;;;;;;1.42;0.60;;;;;;;7.23;61.80;100849.31;4849138;29;20464;-74
2021/01/05 10:45:40;;;;;;;3.40;0.98;;;;;;;8.31;61.12;100840.88;4856817;29;20033;-74
2021/01/05 10:48:07;;;;;;;0.68;0.55;;;;;;;8.99;57.42;100850.16;4834685;29;20037;-73
2021/01/05 10:50:33;;;;;;;1.17;0.80;;;;;;;8.95;55.52;100849.00;4850628;29;20026;-74
2021/01/05 10:52:59;;;;;;;6.43;0.90;;;;;;;8.62;56.50;100844.28;4857615;29;20037;-74
2021/01/05 10:55:24;;;;;;;2.13;0.60;;;;;;;8.24;56.39;100848.41;4860324;29;20042;-74
2021/01/05 10:57:50;;;;;;;2.78;0.77;;;;;;;8.01;57.99;100844.63;4855803;29;20457;-77
2021/01/05 11:00:20;;;;;;;2.38;1.20;;;;;;;7.67;57.71;100831.63;4857354;29;20026;-77
2021/01/05 11:02:46;;;;;;;8.13;4.65;;;;;;;7.31;58.17;100825.31;4856705;29;20121;-77
2021/01/05 11:05:14;;;;;;;6.28;0.80;;;;;;;7.14;60.05;100838.78;4862061;29;20049;-78
2021/01/05 11:07:39;;;;;;;1.83;0.60;;;;;;;6.86;59.69;100825.78;4851356;29;20132;-74
2021/01/05 11:10:05;;;;;;;2.38;0.55;;;;;;;6.62;59.82;100816.75;4844168;29;20560;-74
2021/01/05 11:12:31;;;;;;;6.55;0.90;;;;;;;6.42;60.35;100828.69;4849396;29;20041;-74
2021/01/05 11:14:56;;;;;;;2.42;1.00;;;;;;;6.33;61.08;100821.91;4856362;29;20134;-78
2021/01/05 11:17:29;;;;;;;2.35;0.68;;;;;;;6.14;61.28;100806.72;4855590;29;20369;-76
2021/01/05 11:20:00;;;;;;;2.22;0.57;;;;;;;6.01;61.35;100816.66;4852943;29;20052;-73
2021/01/05 11:22:25;;;;;;;0.60;0.60;;;;;;;5.93;62.08;100808.78;4849385;29;20041;-74
2021/01/05 11:24:50;;;;;;;0.85;0.60;;;;;;;6.00;62.40;100808.72;4860063;29;20090;-73
2021/01/05 11:27:17;;;;;;;1.00;0.50;;;;;;;5.99;62.35;100824.19;4873598;29;20038;-74
2021/01/05 11:29:44;;;;;;;4.63;0.75;;;;;;;5.96;61.80;100808.34;4858512;29;20066;-78
2021/01/05 11:32:13;;;;;;;3.30;0.82;;;;;;;5.98;62.53;100819.81;4861060;29;20037;-77
2021/01/05 11:34:39;;;;;;;1.92;0.70;;;;;;;6.01;62.07;100804.97;4857512;29;20025;-78
2021/01/05 11:37:08;;;;;;;2.60;0.85;;;;;;;6.10;62.23;100818.03;4852835;29;20048;-77
2021/01/05 11:39:36;;;;;;;3.70;0.50;;;;;;;6.19;62.19;100820.41;4858743;29;20018;-78
2021/01/05 11:42:09;;;;;;;0.52;0.52;;;;;;;6.32;61.74;100808.56;4857747;29;20480;-76
2021/01/05 11:44:35;;;;;;;2.33;0.60;;;;;;;6.33;61.69;100797.47;4856033;29;20353;-81
2021/01/05 11:47:00;;;;;;;2.58;0.82;;;;;;;6.57;61.44;100808.44;4863440;29;20033;-80
2021/01/05 11:49:26;;;;;;;0.77;0.77;;;;;;;6.74;61.42;100820.31;4859200;29;20128;-81
2021/01/05 11:51:54;;;;;;;1.33;0.80;;;;;;;6.81;60.65;100802.03;4861864;29;20054;-81
2021/01/05 11:54:20;;;;;;;5.75;0.57;;;;;;;6.90;60.68;100805.25;4871485;29;20034;-80
2021/01/05 11:56:46;;;;;;;4.82;1.33;;;;;;;6.94;60.66;100802.91;4861881;29;20065;-79
2021/01/05 11:59:15;;;;;;;0.98;0.82;;;;;;;6.90;61.03;100802.53;4860183;29;20072;-79
2021/01/05 12:01:41;;;;;;;1.45;0.47;;;;;;;6.99;61.15;100800.31;4877473;29;20034;-82
2021/01/05 12:04:09;;;;;;;2.25;1.00;;;;;;;7.06;60.65;100795.59;4862055;29;20085;-79